Time;durP1;ratioP1;P1;durP2;ratioP2;P2;SDS_P1;SDS_P2;PMS_P1;PMS_P2;Temp;Humidity;BMP_temperature;BMP_pressure;BME280_temperature;BME280_humidity;BME280_pressure;Samples;Min_cycle;Max_cycle;Signal;HPM_P1;HPM_P2
2023/12/15 06:11:49;;;;;;;30.02;12.98;;;;;;;;;;7595602;19;20390;-73
2023/12/15 06:14:21;;;;;;;32.47;14.88;;;;;;;;;;7603032;19;20014;-73
2023/12/15 06:16:54;;;;;;;27.95;12.95;;;3.50;99.90;;;;;;7603776;19;20014;-73
2023/12/15 06:19:26;;;;;;;28.40;12.52;;;3.50;99.90;;;;;;7598919;19;20088;-73
2023/12/15 06:21:59;;;;;;;28.67;13.18;;;3.50;99.90;;;;;;7591537;19;20014;-73
2023/12/15 06:24:31;;;;;;;25.30;12.87;;;;;;;;;;7609864;19;20018;-73
2023/12/15 06:27:05;;;;;;;23.38;11.48;;;;;;;;;;7613717;19;20287;-73
2023/12/15 06:29:37;;;;;;;26.88;12.55;;;;;;;;;;7585485;19;20701;-73
2023/12/15 06:32:12;;;;;;;23.15;13.07;;;;;;;;;;7626812;19;20039;-74
2023/12/15 06:34:45;;;;;;;27.42;12.88;;;;;;;;;;7608702;19;20893;-74
2023/12/15 06:37:18;;;;;;;26.60;13.98;;;;;;;;;;7586130;19;20802;-75
2023/12/15 06:39:51;;;;;;;28.80;15.03;;;;;;;;;;7576975;19;20014;-74
2023/12/15 06:42:24;;;;;;;36.50;14.82;;;;;;;;;;7613857;19;20115;-74
2023/12/15 06:45:00;;;;;;;30.63;15.57;;;;;;;;;;7619127;19;20010;-74
2023/12/15 06:47:33;;;;;;;35.65;17.25;;;;;;;;;;7620896;19;20517;-75
2023/12/15 06:50:06;;;;;;;33.95;14.70;;;;;;;;;;7627644;19;20026;-74
2023/12/15 06:52:40;;;;;;;29.98;15.85;;;;;;;;;;7616034;19;20018;-75
2023/12/15 06:55:12;;;;;;;;;;;;;;;;;;7612804;19;20022;-74
2023/12/15 06:57:45;;;;;;;35.53;16.48;;;;;;;;;;7591547;19;19922;-74
2023/12/15 07:00:18;;;;;;;27.77;13.48;;;;;;;;;;7616672;19;20010;-74
2023/12/15 07:02:51;;;;;;;29.47;14.00;;;;;;;;;;7607105;19;20099;-73
2023/12/15 07:05:24;;;;;;;28.27;12.70;;;;;;;;;;7619809;19;20022;-73
2023/12/15 07:07:58;;;;;;;26.58;11.98;;;;;;;;;;7609241;19;20635;-73
2023/12/15 07:10:30;;;;;;;;;;;;;;;;;;7622123;19;20014;-74
2023/12/15 07:13:04;;;;;;;23.60;11.75;;;;;;;;;;7607935;19;20637;-74
2023/12/15 07:15:36;;;;;;;25.30;12.48;;;;;;;;;;7617450;19;20018;-73
2023/12/15 07:18:09;;;;;;;29.13;14.83;;;;;;;;;;7618964;19;20021;-74
2023/12/15 07:20:42;;;;;;;22.58;12.05;;;;;;;;;;7623081;19;20048;-74
2023/12/15 07:23:16;;;;;;;21.42;12.43;;;;;;;;;;7580964;19;20699;-74
2023/12/15 07:25:48;;;;;;;24.63;12.20;;;;;;;;;;7565441;19;20117;-74
2023/12/15 07:28:21;;;;;;;30.07;14.30;;;;;;;;;;7577498;19;20033;-74
2023/12/15 07:30:54;;;;;;;26.60;13.38;;;;;;;;;;7586376;19;21618;-74
2023/12/15 07:33:27;;;;;;;26.13;14.03;;;;;;;;;;7598472;19;20014;-74
2023/12/15 07:36:00;;;;;;;29.30;15.35;;;;;;;;;;7592837;19;20014;-74
2023/12/15 07:38:32;;;;;;;31.97;16.17;;;;;;;;;;7598323;19;20010;-74
2023/12/15 07:41:06;;;;;;;35.70;17.27;;;;;;;;;;7595198;19;21001;-74
2023/12/15 07:43:39;;;;;;;;;;;;;;;;;;7588594;19;20813;-74
2023/12/15 07:46:18;;;;;;;36.45;17.63;;;;;;;;;;7596250;19;19998;-75
2023/12/15 07:48:51;;;;;;;35.38;17.20;;;;;;;;;;7601544;19;20848;-75
2023/12/15 07:51:24;;;;;;;34.30;15.90;;;;;;;;;;7587728;19;21248;-75
2023/12/15 07:53:56;;;;;;;33.53;16.55;;;;;;;;;;7585293;19;20082;-76
2023/12/15 07:56:29;;;;;;;38.42;19.05;;;;;;;;;;7599996;19;20042;-75
2023/12/15 07:59:02;;;;;;;34.88;17.48;;;;;;;;;;7596205;19;20112;-75
2023/12/15 08:01:35;;;;;;;33.45;17.35;;;;;;;;;;7582428;19;20509;-75
2023/12/15 08:04:10;;;;;;;35.05;16.67;;;;;;;;;;7595487;19;20020;-75
2023/12/15 08:06:43;;;;;;;33.30;15.80;;;;;;;;;;7591672;19;20023;-74
2023/12/15 08:09:17;;;;;;;29.45;15.52;;;;;;;;;;7590751;19;20033;-74
2023/12/15 08:11:51;;;;;;;;;;;;;;;;;;7588664;19;20018;-74
2023/12/15 08:14:26;;;;;;;35.67;16.35;;;;;;;;;;7591071;19;19922;-75
2023/12/15 08:17:00;;;;;;;32.05;15.60;;;;;;;;;;7596532;19;20011;-75
2023/12/15 08:19:33;;;;;;;28.55;14.43;;;;;;;;;;7592018;19;20010;-74
2023/12/15 08:22:06;;;;;;;29.50;14.83;;;;;;;;;;7595011;19;20765;-73
2023/12/15 08:24:38;;;;;;;29.58;13.10;;;;;;;;;;7592761;19;20018;-73
2023/12/15 08:27:12;;;;;;;23.95;12.05;;;;;;;;;;7593800;19;20048;-73
2023/12/15 08:29:45;;;;;;;27.33;13.05;;;;;;;;;;7584784;19;20052;-73
2023/12/15 08:32:18;;;;;;;23.77;11.87;;;;;;;;;;7590465;19;20389;-73
2023/12/15 08:34:51;;;;;;;24.13;11.75;;;;;;;;;;7592746;19;20113;-75
2023/12/15 08:37:24;;;;;;;24.65;12.75;;;;;;;;;;7596112;19;20029;-75
2023/12/15 08:39:57;;;;;;;23.75;12.60;;;;;;;;;;7591411;19;20015;-76
2023/12/15 08:42:29;;;;;;;29.48;13.70;;;;;;;;;;7592850;19;20018;-76
2023/12/15 08:45:02;;;;;;;22.55;12.32;;;;;;;;;;7584357;19;20885;-75
2023/12/15 08:47:35;;;;;;;26.85;12.90;;;;;;;;;;7566000;19;20025;-72
2023/12/15 08:50:08;;;;;;;22.23;11.52;;;;;;;;;;7580235;19;20018;-75
2023/12/15 08:52:41;;;;;;;25.48;12.75;;;;;;;;;;7576278;19;20018;-74
2023/12/15 08:55:14;;;;;;;32.45;12.80;;;;;;;;;;7587779;19;20022;-75
2023/12/15 08:57:47;;;;;;;24.70;12.67;;;;;;;;;;7566030;19;20108;-75
2023/12/15 09:00:19;;;;;;;26.88;12.77;;;;;;;;;;7596155;19;20598;-76
2023/12/15 09:02:53;;;;;;;24.27;11.90;;;;;;;;;;7589003;19;20032;-74
2023/12/15 09:05:26;;;;;;;25.45;12.57;;;;;;;;;;7589847;19;20488;-76
2023/12/15 09:08:19;;;;;;;21.40;12.07;;;;;;;;;;7590358;19;20019;-74
2023/12/15 09:10:52;;;;;;;22.08;10.48;;;;;;;;;;7557618;19;20018;-75
2023/12/15 09:13:25;;;;;;;24.25;11.88;;;;;;;;;;7592552;19;20034;-75
2023/12/15 09:15:58;;;;;;;27.15;13.70;;;;;;;;;;7577585;19;20014;-75
2023/12/15 09:18:31;;;;;;;28.30;12.43;;;;;;;;;;7579479;19;21462;-76
2023/12/15 09:21:04;;;;;;;20.80;11.35;;;;;;;;;;7590055;19;20021;-76
2023/12/15 09:23:37;;;;;;;20.30;10.57;;;;;;;;;;7592877;19;20018;-77
2023/12/15 09:26:10;;;;;;;19.45;8.75;;;;;;;;;;7576018;19;20015;-76
2023/12/15 09:28:43;;;;;;;21.53;10.63;;;;;;;;;;7583055;19;20034;-76
2023/12/15 09:31:16;;;;;;;18.55;10.38;;;;;;;;;;7571733;19;20030;-76
2023/12/15 09:33:48;;;;;;;19.23;10.37;;;;;;;;;;7593448;19;20640;-76
2023/12/15 09:36:24;;;;;;;24.63;11.15;;;;;;;;;;7603747;19;20291;-76
2023/12/15 09:38:56;;;;;;;18.10;10.45;;;;;;;;;;7592703;19;20116;-76
2023/12/15 09:41:32;;;;;;;22.98;11.30;;;;;;;;;;7606370;19;20042;-76
2023/12/15 09:44:05;;;;;;;;;;;;;;;;;;7600772;19;20018;-76
2023/12/15 09:46:38;;;;;;;17.02;8.57;;;;;;;;;;7593714;19;19934;-76
2023/12/15 09:49:15;;;;;;;17.25;8.60;;;;;;;;;;7602844;19;20050;-77
2023/12/15 09:51:49;;;;;;;18.50;9.85;;;;;;;;;;7606321;19;20018;-76
2023/12/15 09:54:23;;;;;;;19.38;9.90;;;;;;;;;;7599631;19;20018;-76
2023/12/15 09:56:56;;;;;;;22.40;11.45;;;;;;;;;;7603484;19;20030;-76
2023/12/15 09:59:30;;;;;;;20.35;10.90;;;;;;;;;;7591366;19;20064;-76
2023/12/15 10:02:04;;;;;;;22.88;10.75;;;;;;;;;;7624773;19;20306;-76
2023/12/15 10:04:36;;;;;;;21.20;9.95;;;;;;;;;;7623853;19;20556;-76
2023/12/15 10:07:09;;;;;;;19.00;10.00;;;;;;;;;;7612404;19;20583;-76
2023/12/15 10:09:42;;;;;;;17.10;9.25;;;;;;;;;;7615735;19;20025;-76
2023/12/15 10:12:15;;;;;;;18.85;9.75;;;;;;;;;;7604391;19;20365;-76
2023/12/15 10:14:48;;;;;;;15.85;9.15;;;;;;;;;;7605606;19;20018;-76
2023/12/15 10:17:22;;;;;;;17.83;9.25;;;;;;;;;;7608788;19;20504;-76
2023/12/15 10:20:09;;;;;;;18.30;8.82;;;;;;;;;;7605903;19;20018;-76
2023/12/15 10:22:42;;;;;;;15.70;8.38;;;;;;;;;;7597196;19;20025;-76
2023/12/15 10:25:16;;;;;;;18.83;9.98;;;;;;;;;;7609225;19;20013;-76
2023/12/15 10:27:50;;;;;;;16.58;8.65;;;;;;;;;;7601913;19;20094;-75
2023/12/15 10:30:22;;;;;;;16.25;8.90;;;;;;;;;;7598333;19;20060;-75
2023/12/15 10:32:58;;;;;;;16.23;8.73;;;;;;;;;;7595728;19;20011;-75
2023/12/15 10:35:32;;;;;;;15.68;8.52;;;;;;;;;;7591681;19;20062;-75
2023/12/15 10:38:07;;;;;;;20.38;10.23;;;;;;;;;;7591964;19;20026;-75
2023/12/15 10:40:39;;;;;;;22.77;9.90;;;;;;;;;;7583814;19;21482;-75
2023/12/15 10:43:13;;;;;;;20.75;10.02;;;;;;;;;;7586439;19;20014;-75
2023/12/15 10:45:47;;;;;;;19.60;10.18;;;3.60;99.90;;;;;;7587262;19;20018;-74
2023/12/15 10:48:19;;;;;;;;;;;4.40;99.90;;;;;;7594520;19;20034;-75
2023/12/15 10:50:53;;;;;;;20.65;10.43;;;4.20;99.90;;;;;;7586917;19;20215;-75
2023/12/15 10:53:26;;;;;;;18.45;9.13;;;4.30;99.90;;;;;;7589423;19;20104;-75
2023/12/15 10:56:00;;;;;;;18.15;9.70;;;4.30;99.90;;;;;;7586717;19;20400;-75
2023/12/15 10:58:33;;;;;;;19.83;10.50;;;4.30;99.90;;;;;;7594534;19;20029;-76
2023/12/15 11:01:09;;;;;;;21.90;11.38;;;4.30;99.90;;;;;;7583433;19;20048;-76
2023/12/15 11:03:41;;;;;;;18.10;9.77;;;4.30;99.90;;;;;;7595400;19;20038;-75
2023/12/15 11:06:33;;;;;;;19.40;9.15;;;4.30;99.90;;;;;;7591529;19;20464;-76
2023/12/15 11:09:07;;;;;;;20.58;10.63;;;4.30;99.90;;;;;;7590022;19;20019;-76
2023/12/15 11:11:39;;;;;;;18.13;10.20;;;4.30;99.90;;;;;;7592875;19;20018;-73
2023/12/15 11:14:11;;;;;;;18.90;9.85;;;4.30;99.90;;;;;;7590664;19;20302;-74
2023/12/15 11:16:45;;;;;;;19.02;10.32;;;4.30;99.90;;;;;;7594505;19;20019;-73
2023/12/15 11:19:19;;;;;;;23.05;12.18;;;;;;;;;;7588581;19;20114;-74
2023/12/15 11:21:53;;;;;;;19.08;10.25;;;;;;;;;;7592939;19;20052;-75
2023/12/15 11:24:25;;;;;;;17.92;9.90;;;;;;;;;;7589902;19;20029;-74
2023/12/15 11:26:58;;;;;;;18.60;9.40;;;;;;;;;;7591172;19;20962;-74
2023/12/15 11:29:35;;;;;;;18.70;9.77;;;;;;;;;;7598444;19;20022;-74
2023/12/15 11:32:27;;;;;;;17.90;9.27;;;;;;;;;;7588437;19;20299;-75
2023/12/15 11:35:00;;;;;;;16.23;9.43;;;;;;;;;;7590492;19;20010;-74
2023/12/15 11:37:33;;;;;;;16.45;9.25;;;;;;;;;;7596988;19;20033;-74
2023/12/15 11:40:06;;;;;;;17.23;9.32;;;;;;;;;;7591223;19;20090;-75
2023/12/15 11:42:40;;;;;;;18.50;9.52;;;;;;;;;;7590369;19;20147;-74
2023/12/15 11:45:12;;;;;;;16.20;8.40;;;;;;;;;;7574349;19;20936;-75
2023/12/15 11:47:45;;;;;;;16.57;8.37;;;;;;;;;;7600329;19;20019;-76
2023/12/15 11:50:19;;;;;;;19.33;10.70;;;;;;;;;;7592429;19;20019;-76
2023/12/15 11:52:55;;;;;;;18.13;10.77;;;;;;;;;;7594884;19;20018;-76
2023/12/15 11:55:28;;;;;;;19.02;10.63;;;;;;;;;;7590347;19;20022;-76
2023/12/15 11:58:02;;;;;;;16.58;10.13;;;;;;;;;;7586271;19;20468;-76
2023/12/15 12:00:35;;;;;;;18.17;9.75;;;;;;;;;;7589935;19;20106;-75
2023/12/15 12:03:10;;;;;;;18.67;10.65;;;;;;;;;;7592366;19;20022;-75
2023/12/15 12:05:57;;;;;;;19.45;10.77;;;;;;;;;;7598875;19;20638;-75
2023/12/15 12:08:35;;;;;;;18.00;9.57;;;;;;;;;;7594532;19;20089;-75
2023/12/15 12:11:08;;;;;;;18.55;9.85;;;;;;;;;;7597194;19;20307;-76
2023/12/15 12:13:42;;;;;;;;;;;;;;;;;;7601071;19;20022;-75
2023/12/15 12:16:17;;;;;;;19.45;8.85;;;;;;;;;;7578422;19;20992;-77
2023/12/15 12:18:50;;;;;;;18.50;9.45;;;;;;;;;;7571385;19;20014;-76
2023/12/15 12:21:23;;;;;;;19.02;10.55;;;;;;;;;;7588503;19;20018;-76
2023/12/15 12:23:56;;;;;;;19.90;10.30;;;;;;;;;;7572187;19;20014;-75
2023/12/15 12:26:28;;;;;;;19.63;11.10;;;;;;;;;;7589069;19;20018;-76
2023/12/15 12:29:01;;;;;;;21.35;10.55;;;;;;;;;;7577397;19;20010;-75
2023/12/15 12:31:34;;;;;;;18.50;9.98;;;;;;;;;;7576598;19;20064;-76
2023/12/15 12:34:07;;;;;;;15.97;9.33;;;;;;;;;;7583358;19;20014;-75
2023/12/15 12:36:40;;;;;;;12.35;7.63;;;;;;;;;;7571242;19;20784;-76
2023/12/15 12:39:12;;;;;;;21.20;10.93;;;;;;;;;;7574425;19;20014;-76
2023/12/15 12:41:45;;;;;;;18.05;10.18;;;;;;;;;;7577856;19;20025;-75
2023/12/15 12:44:18;;;;;;;13.23;7.95;;;;;;;;;;7578118;19;20540;-75
2023/12/15 12:46:51;;;;;;;14.93;8.45;;;;;;;;;;7570434;19;20434;-76
2023/12/15 12:49:25;;;;;;;15.63;8.38;;;;;;;;;;7562289;19;21788;-74
2023/12/15 12:51:59;;;;;;;16.67;9.40;;;;;;;;;;7580840;19;20022;-76
2023/12/15 12:54:32;;;;;;;21.55;11.40;;;;;;;;;;7586201;19;20056;-74
2023/12/15 12:57:05;;;;;;;14.20;8.07;;;;;;;;;;7581875;19;20937;-75
2023/12/15 12:59:40;;;;;;;14.73;8.15;;;;;;;;;;7594546;19;20097;-75
2023/12/15 13:02:13;;;;;;;14.07;7.53;;;;;;;;;;7586963;19;20014;-75
2023/12/15 13:04:53;;;;;;;15.43;8.35;;;;;;;;;;7579193;19;20015;-75
2023/12/15 13:07:28;;;;;;;17.25;8.55;;;;;;;;;;7590648;19;20581;-75
2023/12/15 13:10:01;;;;;;;15.85;8.45;;;;;;;;;;7585740;19;20498;-76
2023/12/15 13:12:34;;;;;;;11.50;7.00;;;;;;;;;;7589908;19;20032;-75
2023/12/15 13:15:08;;;;;;;13.13;7.88;;;;;;;;;;7582265;19;20048;-75
2023/12/15 13:17:41;;;;;;;11.90;7.13;;;;;;;;;;7583747;19;20017;-75
2023/12/15 13:20:13;;;;;;;16.58;8.30;;;;;;;;;;7554345;19;20362;-76
2023/12/15 13:22:46;;;;;;;16.15;8.30;;;;;;;;;;7554155;19;20026;-76
2023/12/15 13:25:20;;;;;;;12.10;7.38;;;;;;;;;;7571255;19;20006;-74
2023/12/15 13:27:54;;;;;;;12.30;7.63;;;;;;;;;;7560388;19;20921;-75
2023/12/15 13:30:27;;;;;;;13.02;7.30;;;;;;;;;;7559532;19;20021;-75
2023/12/15 13:33:00;;;;;;;13.95;7.65;;;;;;;;;;7571398;19;20259;-75
2023/12/15 13:35:33;;;;;;;14.85;8.32;;;;;;;;;;7581833;19;20991;-75
2023/12/15 13:38:07;;;;;;;12.57;7.45;;;;;;;;;;7564739;19;20025;-74
2023/12/15 13:40:39;;;;;;;17.98;8.65;;;4.40;99.90;;;;;;7573474;19;20020;-74
2023/12/15 13:43:11;;;;;;;17.58;9.05;;;5.30;99.90;;;;;;7572197;19;20041;-74
2023/12/15 13:45:43;;;;;;;13.85;7.20;;;5.40;99.90;;;;;;7564620;19;20018;-75
2023/12/15 13:48:28;;;;;;;14.90;8.50;;;5.40;99.90;;;;;;7557891;19;21030;-75
2023/12/15 13:51:01;;;;;;;15.35;8.07;;;5.40;99.90;;;;;;7555080;19;20045;-76
2023/12/15 13:53:33;;;;;;;14.90;8.87;;;5.30;99.90;;;;;;7551643;19;20025;-75
2023/12/15 13:56:06;;;;;;;16.13;8.48;;;5.30;99.90;;;;;;7553512;19;20283;-75
2023/12/15 13:58:39;;;;;;;16.87;7.80;;;5.20;99.90;;;;;;7547758;19;20013;-81
2023/12/15 14:01:11;;;;;;;12.45;8.07;;;5.20;99.90;;;;;;7527704;19;20188;-75
2023/12/15 14:03:44;;;;;;;15.90;8.02;;;5.20;99.90;;;;;;7552039;19;20500;-75
2023/12/15 14:06:16;;;;;;;13.05;8.15;;;5.10;99.90;;;;;;7538703;19;20033;-76
2023/12/15 14:08:49;;;;;;;15.55;8.23;;;5.20;99.90;;;;;;7554446;19;20048;-76
2023/12/15 14:11:21;;;;;;;14.13;7.05;;;5.20;99.90;;;;;;7558239;19;20809;-75
2023/12/15 14:13:54;;;;;;;11.90;7.18;;;5.20;99.90;;;;;;7545980;19;20104;-75
2023/12/15 14:16:27;;;;;;;12.02;7.70;;;5.10;99.90;;;;;;7566288;19;20014;-75
2023/12/15 14:19:15;;;;;;;13.32;7.28;;;5.20;99.90;;;;;;7574408;19;20684;-78
2023/12/15 14:21:51;;;;;;;15.20;7.75;;;5.10;99.90;;;;;;7575860;19;20015;-75
2023/12/15 14:24:23;;;;;;;12.90;7.73;;;5.10;99.90;;;;;;7552963;19;20816;-75
2023/12/15 14:26:55;;;;;;;16.10;7.82;;;4.20;99.90;;;;;;7560265;19;20302;-76
2023/12/15 14:29:30;;;;;;;15.75;7.82;;;5.10;99.90;;;;;;7543568;19;20018;-77
2023/12/15 14:32:04;;;;;;;18.83;7.88;;;5.10;99.90;;;;;;7573108;19;20015;-76
2023/12/15 14:34:37;;;;;;;12.52;7.50;;;;;;;;;;7584097;19;20018;-76
2023/12/15 14:37:10;;;;;;;11.43;7.05;;;;;;;;;;7580212;19;20029;-76
2023/12/15 14:39:43;;;;;;;18.80;7.33;;;;;;;;;;7568657;19;20663;-75
2023/12/15 14:42:16;;;;;;;13.77;7.35;;;;;;;;;;7566510;19;20019;-75
2023/12/15 14:44:49;;;;;;;13.67;7.40;;;;;;;;;;7583296;19;20825;-75
2023/12/15 14:47:22;;;;;;;15.73;8.17;;;;;;;;;;7563853;19;20243;-77
2023/12/15 14:49:54;;;;;;;16.77;8.27;;;;;;;;;;7582865;19;20006;-76
2023/12/15 14:52:28;;;;;;;14.98;8.88;;;;;;;;;;7568139;19;20010;-76
2023/12/15 14:55:02;;;;;;;16.30;8.98;;;;;;;;;;7569891;19;20029;-77
2023/12/15 14:57:34;;;;;;;13.93;8.43;;;;;;;;;;7584155;19;20025;-77
2023/12/15 15:00:07;;;;;;;14.52;8.23;;;;;;;;;;7592630;19;20021;-77
2023/12/15 15:02:41;;;;;;;15.18;8.43;;;;;;;;;;7586720;19;20022;-77
2023/12/15 15:05:14;;;;;;;15.40;8.80;;;;;;;;;;7581255;19;20134;-78
2023/12/15 15:07:47;;;;;;;15.90;9.48;;;;;;;;;;7573296;19;20482;-77
2023/12/15 15:10:20;;;;;;;16.17;8.23;;;;;;;;;;7564384;19;21475;-77
2023/12/15 15:12:53;;;;;;;14.15;8.32;;;;;;;;;;7551927;19;20014;-77
2023/12/15 15:15:25;;;;;;;12.73;8.07;;;;;;;;;;7558250;19;20018;-76
2023/12/15 15:17:58;;;;;;;15.90;8.70;;;;;;;;;;7561995;19;20014;-76
2023/12/15 15:20:32;;;;;;;14.70;8.65;;;;;;;;;;7566838;19;20029;-76
2023/12/15 15:23:05;;;;;;;16.40;9.53;;;;;;;;;;7548876;19;20014;-80
2023/12/15 15:25:38;;;;;;;16.48;8.07;;;;;;;;;;7571200;19;20021;-76
2023/12/15 15:28:11;;;;;;;14.73;8.50;;;;;;;;;;7559364;19;20385;-77
2023/12/15 15:30:44;;;;;;;14.83;8.93;;;;;;;;;;7567405;19;20054;-77
2023/12/15 15:33:17;;;;;;;19.48;10.45;;;;;;;;;;7553802;19;20015;-77
2023/12/15 15:35:50;;;;;;;21.23;9.48;;;;;;;;;;7563711;19;20480;-77
2023/12/15 15:38:23;;;;;;;19.75;10.52;;;;;;;;;;7552997;19;20011;-77
2023/12/15 15:40:56;;;;;;;21.25;11.35;;;;;;;;;;7553626;19;20537;-76
2023/12/15 15:43:29;;;;;;;17.67;9.35;;;;;;;;;;7564357;19;20021;-77
2023/12/15 15:46:03;;;;;;;24.20;9.17;;;;;;;;;;7569323;19;20881;-77
2023/12/15 15:48:36;;;;;;;22.25;10.88;;;;;;;;;;7550249;19;20026;-78
2023/12/15 15:51:18;;;;;;;28.58;13.65;;;;;;;;;;7555220;19;20019;-77
2023/12/15 15:53:52;;;;;;;24.88;11.55;;;;;;;;;;7554238;19;21129;-78
2023/12/15 15:56:26;;;;;;;24.73;13.32;;;;;;;;;;7568420;19;20029;-77
2023/12/15 15:58:59;;;;;;;28.77;12.73;;;;;;;;;;7568641;19;20699;-78
2023/12/15 16:01:32;;;;;;;36.40;17.20;;;;;;;;;;7565938;19;20025;-77
2023/12/15 16:04:14;;;;;;;25.10;12.90;;;;;;;;;;7572838;19;20023;-77
2023/12/15 16:06:47;;;;;;;25.20;12.63;;;;;;;;;;7573451;19;20032;-77
2023/12/15 16:09:20;;;;;;;20.83;12.03;;;;;;;;;;7567545;19;20750;-77
2023/12/15 16:11:52;;;;;;;21.38;12.02;;;;;;;;;;7565418;19;20033;-76
2023/12/15 16:14:25;;;;;;;18.60;10.98;;;;;;;;;;7563326;19;20021;-75
2023/12/15 16:16:58;;;;;;;20.03;11.83;;;;;;;;;;7564845;19;20011;-76
2023/12/15 16:19:30;;;;;;;18.50;11.97;;;;;;;;;;7569122;19;20661;-77
2023/12/15 16:22:04;;;;;;;22.23;12.13;;;;;;;;;;7559224;19;20048;-77
2023/12/15 16:24:37;;;;;;;21.33;12.07;;;;;;;;;;7552496;19;20014;-75
2023/12/15 16:27:10;;;;;;;16.85;10.32;;;;;;;;;;7580170;19;20018;-75
2023/12/15 16:29:42;;;;;;;18.92;11.43;;;;;;;;;;7563826;19;20049;-76
2023/12/15 16:32:14;;;;;;;17.75;10.43;;;5.10;99.90;;;;;;7553249;19;20014;-75
2023/12/15 16:34:47;;;;;;;16.38;8.90;;;5.00;99.90;;;;;;7574577;19;20022;-75
2023/12/15 16:37:20;;;;;;;18.15;9.93;;;5.00;99.90;;;;;;7550772;19;20026;-74
2023/12/15 16:39:54;;;;;;;16.30;9.32;;;5.00;99.90;;;;;;7553722;19;20093;-75
2023/12/15 16:42:26;;;;;;;;;;;5.00;99.90;;;;;;7555221;19;20022;-74
2023/12/15 16:44:59;;;;;;;20.90;9.90;;;5.10;99.90;;;;;;7555337;19;20431;-75
2023/12/15 16:47:31;;;;;;;18.52;10.88;;;5.00;99.90;;;;;;7545638;19;20121;-74
2023/12/15 16:50:04;;;;;;;25.52;12.77;;;5.00;99.90;;;;;;7555414;19;20018;-76
2023/12/15 16:52:38;;;;;;;20.48;11.38;;;5.10;99.90;;;;;;7551781;19;20015;-75
2023/12/15 16:55:10;;;;;;;;;;;5.10;99.90;;;;;;7529284;19;20056;-75
2023/12/15 16:57:42;;;;;;;17.77;11.07;;;5.00;99.90;;;;;;7522369;19;20030;-74
2023/12/15 17:00:19;;;;;;;16.80;11.07;;;5.00;99.90;;;;;;7549607;19;20048;-76
2023/12/15 17:02:51;;;;;;;18.90;10.07;;;5.00;99.90;;;;;;7530963;19;20057;-75
2023/12/15 17:05:24;;;;;;;17.65;11.02;;;5.00;99.90;;;;;;7520076;19;20019;-76
2023/12/15 17:07:56;;;;;;;19.15;10.63;;;5.00;99.90;;;;;;7535169;19;20025;-76
2023/12/15 17:10:29;;;;;;;17.08;10.13;;;4.90;99.90;;;;;;7534375;19;20019;-76
2023/12/15 17:13:01;;;;;;;15.57;10.03;;;4.90;99.90;;;;;;7529210;19;20018;-75
2023/12/15 17:15:34;;;;;;;18.20;10.45;;;4.90;99.90;;;;;;7535671;19;20275;-76
2023/12/15 17:18:06;;;;;;;19.92;10.70;;;5.00;99.90;;;;;;7548829;19;20074;-75
2023/12/15 17:20:41;;;;;;;19.42;9.98;;;5.00;99.90;;;;;;7534638;19;20496;-76
2023/12/15 17:23:13;;;;;;;19.73;11.20;;;4.90;99.90;;;;;;7541580;19;20807;-77
2023/12/15 17:25:46;;;;;;;17.23;9.88;;;;;;;;;;7552052;19;20011;-77
2023/12/15 17:28:19;;;;;;;17.30;10.90;;;;;;;;;;7561220;19;20029;-76
2023/12/15 17:30:53;;;;;;;19.15;11.23;;;;;;;;;;7559823;19;20034;-75
2023/12/15 17:33:26;;;;;;;17.88;10.77;;;;;;;;;;7545909;19;20074;-76
2023/12/15 17:35:59;;;;;;;17.52;10.57;;;;;;;;;;7539996;19;20039;-75
2023/12/15 17:38:32;;;;;;;15.82;10.43;;;;;;;;;;7554605;19;20006;-75
2023/12/15 17:41:04;;;;;;;23.10;12.07;;;;;;;;;;7568963;19;20018;-77
2023/12/15 17:43:39;;;;;;;23.23;11.38;;;;;;;;;;7556924;19;20019;-78
2023/12/15 17:46:20;;;;;;;14.45;9.48;;;;;;;;;;7558160;19;20011;-78
2023/12/15 17:48:53;;;;;;;20.35;9.98;;;;;;;;;;7537939;19;20014;-78
2023/12/15 17:51:26;;;;;;;19.73;11.20;;;;;;;;;;7551431;19;20011;-77
2023/12/15 17:53:59;;;;;;;;;;;;;;;;;;7570724;19;20010;-76
2023/12/15 17:56:32;;;;;;;19.98;10.63;;;;;;;;;;7549592;19;19934;-76
2023/12/15 17:59:05;;;;;;;18.20;11.33;;;;;;;;;;7548835;19;20015;-75
2023/12/15 18:01:38;;;;;;;21.17;12.37;;;;;;;;;;7560302;19;20017;-76
2023/12/15 18:04:12;;;;;;;19.52;12.52;;;;;;;;;;7557460;19;21069;-75
2023/12/15 18:06:45;;;;;;;25.23;12.82;;;;;;;;;;7564478;19;20014;-77
2023/12/15 18:09:18;;;;;;;22.10;12.15;;;;;;;;;;7570111;19;20097;-76
2023/12/15 18:11:51;;;;;;;;;;;;;;;;;;7569752;19;20018;-77
2023/12/15 18:14:24;;;;;;;19.45;11.70;;;;;;;;;;7572871;19;20349;-78
2023/12/15 18:16:57;;;;;;;22.20;11.70;;;;;;;;;;7563188;19;21559;-77
2023/12/15 18:19:30;;;;;;;22.25;13.05;;;;;;;;;;7560648;19;20056;-77
2023/12/15 18:22:02;;;;;;;20.90;12.77;;;;;;;;;;7535875;19;20014;-77
2023/12/15 18:24:39;;;;;;;23.90;13.68;;;;;;;;;;7535457;19;20014;-79
2023/12/15 18:27:11;;;;;;;24.80;14.00;;;;;;;;;;7558313;19;20014;-77
2023/12/15 18:29:45;;;;;;;20.83;13.43;;;;;;;;;;7545429;19;20434;-78
2023/12/15 18:32:18;;;;;;;23.63;11.67;;;;;;;;;;7543865;19;20586;-76
2023/12/15 18:34:51;;;;;;;24.55;12.38;;;;;;;;;;7538333;19;20018;-78
2023/12/15 18:37:23;;;;;;;20.65;11.98;;;;;;;;;;7539637;19;20109;-78
2023/12/15 18:39:57;;;;;;;25.10;13.35;;;;;;;;;;7539398;19;24259;-79
2023/12/15 18:42:29;;;;;;;17.83;11.95;;;;;;;;;;7545189;19;20014;-77
2023/12/15 18:45:03;;;;;;;23.92;13.07;;;;;;;;;;7531435;19;20014;-76
2023/12/15 18:47:36;;;;;;;;;;;;;;;;;;7542597;19;21432;-77
2023/12/15 18:50:09;;;;;;;22.70;13.00;;;;;;;;;;7553475;19;20847;-79
2023/12/15 18:52:42;;;;;;;20.35;12.35;;;;;;;;;;7532659;19;20641;-79
2023/12/15 18:55:15;;;;;;;23.00;12.80;;;;;;;;;;7560923;19;21552;-78
2023/12/15 18:57:48;;;;;;;22.20;12.57;;;;;;;;;;7546146;19;20025;-78
2023/12/15 19:00:24;;;;;;;18.90;11.88;;;;;;;;;;7553434;19;26524;-78
2023/12/15 19:02:56;;;;;;;18.73;11.93;;;;;;;;;;7548024;19;20014;-78
2023/12/15 19:05:29;;;;;;;15.07;10.40;;;;;;;;;;7542231;19;20023;-75
2023/12/15 19:08:02;;;;;;;26.13;15.20;;;;;;;;;;7551567;19;20750;-75
2023/12/15 19:10:35;;;;;;;39.27;18.73;;;;;;;;;;7536690;19;20017;-76
2023/12/15 19:13:08;;;;;;;16.77;10.73;;;;;;;;;;7542651;19;20029;-75
2023/12/15 19:15:41;;;;;;;20.97;10.63;;;;;;;;;;7534342;19;22777;-76
2023/12/15 19:18:13;;;;;;;21.48;10.60;;;;;;;;;;7544990;19;20010;-75
2023/12/15 19:20:47;;;;;;;20.88;10.77;;;;;;;;;;7552812;19;21611;-74
2023/12/15 19:23:20;;;;;;;15.50;9.68;;;;;;;;;;7555889;19;20015;-75
2023/12/15 19:25:53;;;;;;;15.23;9.90;;;;;;;;;;7551364;19;20014;-76
2023/12/15 19:28:26;;;;;;;16.75;10.63;;;;;;;;;;7562635;19;20022;-76
2023/12/15 19:30:59;;;;;;;17.27;11.10;;;;;;;;;;7498757;19;20404;-76
2023/12/15 19:33:33;;;;;;;21.70;10.55;;;;;;;;;;7559796;19;20015;-76
2023/12/15 19:36:06;;;;;;;22.40;12.07;;;;;;;;;;7563072;19;20520;-76
2023/12/15 19:38:41;;;;;;;22.80;12.07;;;;;;;;;;7567000;19;20011;-76
2023/12/15 19:41:17;;;;;;;19.23;11.35;;;;;;;;;;7577195;19;20287;-77
2023/12/15 19:43:51;;;;;;;22.90;11.38;;;;;;;;;;7550270;19;20014;-76
2023/12/15 19:46:31;;;;;;;19.08;11.52;;;;;;;;;;7557925;19;20014;-76
2023/12/15 19:49:05;;;;;;;22.88;12.15;;;;;;;;;;7559400;19;20025;-76
2023/12/15 19:51:38;;;;;;;;;;;;;;;;;;7549830;19;20087;-76
2023/12/15 19:54:14;;;;;;;20.00;10.57;;;;;;;;;;7557988;19;19922;-77
2023/12/15 19:56:53;;;;;;;16.80;9.90;;;;;;;;;;7555546;19;20778;-77
2023/12/15 19:59:26;;;;;;;16.95;10.60;;;;;;;;;;7537091;19;20014;-75
2023/12/15 20:02:02;;;;;;;23.30;12.82;;;;;;;;;;7551783;19;20086;-75
2023/12/15 20:04:36;;;;;;;18.58;10.63;;;;;;;;;;7540827;19;20029;-75
2023/12/15 20:07:09;;;;;;;17.40;10.38;;;;;;;;;;7522963;19;20219;-75
2023/12/15 20:09:41;;;;;;;20.17;9.93;;;;;;;;;;7031127;19;10001015;-75
2023/12/15 20:12:15;;;;;;;21.03;11.90;;;;;;;;;;7030425;19;10000058;-74
2023/12/15 20:14:47;;;;;;;22.70;13.18;;;;;;;;;;7534773;19;20011;-74
2023/12/15 20:17:20;;;;;;;22.90;12.43;;;;;;;;;;7515036;19;20279;-75
2023/12/15 20:19:54;;;;;;;;;;;;;;;;;;7526207;19;20725;-75
2023/12/15 20:22:27;;;;;;;22.52;12.75;;;;;;;;;;7526867;19;19933;-74
2023/12/15 20:25:02;;;;;;;20.17;11.63;;;;;;;;;;7543440;19;20352;-74
2023/12/15 20:27:38;;;;;;;20.83;12.52;;;;;;;;;;7520909;19;20940;-75
2023/12/15 20:30:16;;;;;;;19.77;11.40;;;;;;;;;;7528823;19;20088;-75
2023/12/15 20:32:49;;;;;;;19.92;11.48;;;;;;;;;;7540403;19;20788;-74
2023/12/15 20:35:22;;;;;;;21.27;11.65;;;;;;;;;;7549868;19;20026;-75
2023/12/15 20:37:55;;;;;;;24.40;13.13;;;;;;;;;;7535540;19;20400;-75
2023/12/15 20:40:28;;;;;;;16.87;11.47;;;;;;;;;;7551881;19;20018;-75
2023/12/15 20:43:02;;;;;;;20.77;11.43;;;;;;;;;;7514756;19;20300;-75
2023/12/15 20:45:34;;;;;;;19.10;11.75;;;;;;;;;;7512150;19;20014;-74
2023/12/15 20:48:07;;;;;;;22.50;10.93;;;;;;;;;;7497772;19;21227;-75
2023/12/15 20:50:40;;;;;;;17.73;11.40;;;;;;;;;;7479327;19;27508;-75
2023/12/15 20:53:13;;;;;;;20.57;10.87;;;;;;;;;;7461143;19;20064;-75